Buoy 46762

sailwx.info

Track history (hours):
 
Tides and Currents Weather Stations Pressure Air Temp Water Temp Dewpoint Dewpoint Depression Visibility Wind Speed Wind Dir Waves Ship Positions

Drifting buoy 46762

Last reported at 2014-Oct-31 12:00 UTC. Time now 2014-Oct-31 13:39 UTC.
Position N 53°21' W 143°35'.

Barometer 1001.8 mb
Water temperature 10.8 ° C

Date/timePositionNaut miles runAvg speedWind from/ knotsBaromVisibWave heightAir tempDewpointWater temp
2014-Oct-31 12:00N 53°21' W 143°35'0 0.0 1001.8 10.8
2014-Oct-31 11:00N 53°21' W 143°35'0 0.0 1002.2 10.8
2014-Oct-31 10:00N 53°21' W 143°35'0 0.0 1002.6 10.8
2014-Oct-31 08:00N 53°21' W 143°35'1 1.5 1002.8 10.8
2014-Oct-31 07:00N 53°19' W 143°36'1 0.9 1003.0 10.8
2014-Oct-31 06:00N 53°20' W 143°35'1 0.6 1002.9 10.8
2014-Oct-31 05:00N 53°20' W 143°35'1 0.7 1002.6 10.8
2014-Oct-31 03:00N 53°20' W 143°38'0 0.0 1002.5 10.7
2014-Oct-31 02:00N 53°20' W 143°38'0 0.3 1002.4 10.7
2014-Oct-31 01:00N 53°20' W 143°37'0 0.3 1002.4 10.7
2014-Oct-31 00:00N 53°20' W 143°38'2 1.5 1002.5 10.7
2014-Oct-30 23:00N 53°18' W 143°39'0 0.0 1002.6 10.7
2014-Oct-30 22:00N 53°18' W 143°39'2 1.8 1002.6 10.7
2014-Oct-30 21:00N 53°20' W 143°36'1 1.0 1002.6 10.7
2014-Oct-30 20:00N 53°19' W 143°35'0 0.1 1002.5 10.6
2014-Oct-30 18:00N 53°19' W 143°35'0 0.0 1002.1 10.6
2014-Oct-30 17:00N 53°19' W 143°35'0 0.0 1001.5 10.6
2014-Oct-30 16:00N 53°19' W 143°35'1 0.7 1001.1 10.6
2014-Oct-30 14:00N 53°20' W 143°37'1 0.7 1000.5 10.6
2014-Oct-30 13:00N 53°20' W 143°36'0 0.0 1000.5 10.6
2014-Oct-30 12:00N 53°20' W 143°36'0 0.0 1000.9 10.5
2014-Oct-30 10:00N 53°20' W 143°36'2 0.7 1001.4 10.4
2014-Oct-30 07:00N 53°21' W 143°32'1 0.4 1001.7 10.5
2014-Oct-30 05:00N 53°21' W 143°34'2 1.0 1001.7 10.6
2014-Oct-30 03:00N 53°22' W 143°36'0 0.0 1000.8 10.6
2014-Oct-30 02:00N 53°22' W 143°36'1 0.8 1000.7 10.6
2014-Oct-30 01:00N 53°23' W 143°37'1 0.8 1000.4 10.7
2014-Oct-30 00:00N 53°22' W 143°36'1 1.3 1000.4 10.7
2014-Oct-29 23:00N 53°22' W 143°38'1 0.8 1000.6 10.6
2014-Oct-29 22:00N 53°21' W 143°39'0 0.2 1000.7 10.6
2014-Oct-29 21:00N 53°21' W 143°39'0 0.0 1000.9 10.6
2014-Oct-29 20:00N 53°21' W 143°39'2 2.4 1000.8 10.6
2014-Oct-29 19:00N 53°22' W 143°35'0 0.0 1000.3 10.6
2014-Oct-29 18:00N 53°22' W 143°35'1 1.4 999.7 10.6
2014-Oct-29 17:00N 53°21' W 143°34'0 0.0 999.0 10.6
2014-Oct-29 16:00N 53°21' W 143°34'0 0.0 998.5 10.6
2014-Oct-29 15:00N 53°21' W 143°34'3 2.5 998.2 10.6
2014-Oct-29 14:00N 53°21' W 143°38'0 0.0 998.2 10.6
2014-Oct-29 13:00N 53°21' W 143°38'0 0.0 998.2 10.6
2014-Oct-29 11:00N 53°21' W 143°38'0 0.0 998.2 10.6
2014-Oct-29 07:00N 53°21' W 143°38'0 0.4 998.4 10.6
2014-Oct-29 06:00N 53°21' W 143°37'1 0.9 998.2 10.7
2014-Oct-29 05:00N 53°22' W 143°36'1 1.4 998.2 10.7
2014-Oct-29 04:00N 53°21' W 143°38'1 0.4 997.8 10.7
2014-Oct-29 02:00N 53°21' W 143°37'1 0.8 997.3 10.7
2014-Oct-29 01:00N 53°22' W 143°36'1 1.4 997.2 10.7
2014-Oct-29 00:00N 53°23' W 143°37'0 0.0 997.2 10.8
2014-Oct-28 23:00N 53°23' W 143°37'0 0.3 997.5 10.8
2014-Oct-28 22:00N 53°23' W 143°37'0 0.0 998.2 10.8
2014-Oct-28 21:00N 53°23' W 143°37'1 0.4 998.7 10.8
2014-Oct-28 19:00N 53°23' W 143°39'1 0.6 999.3 10.7
2014-Oct-28 18:00N 53°22' W 143°38'1 0.5 999.6 10.7
2014-Oct-28 16:00N 53°22' W 143°37'0 0.0 999.8 10.8
2014-Oct-28 15:00N 53°22' W 143°37'2 1.5 1000.0 10.7
2014-Oct-28 14:00N 53°23' W 143°39'1 0.5 1000.2 10.7
2014-Oct-28 13:00N 53°23' W 143°38'0 0.0 1000.6 10.7
2014-Oct-28 12:00N 53°23' W 143°38'1 0.5 1001.0 10.8
2014-Oct-28 10:00N 53°23' W 143°37'0 0.0 1002.2 10.8
2014-Oct-28 07:00N 53°23' W 143°37'0 0.0 1003.0 10.8
2014-Oct-28 06:00N 53°23' W 143°37'1 0.4 1003.2 10.8
2014-Oct-28 04:00N 53°23' W 143°38'0 0.0 1003.8 10.8
2014-Oct-28 03:00N 53°23' W 143°38'2 1.9 1003.8 10.8
2014-Oct-28 02:00N 53°24' W 143°35'1 1.4 1003.9 10.8
2014-Oct-28 01:00N 53°25' W 143°37'0 0.4 1004.1 10.8
2014-Oct-28 00:00N 53°25' W 143°37'0 0.0 1004.4 10.8
2014-Oct-27 23:00N 53°25' W 143°37'2 2.0 1004.6 10.8
2014-Oct-27 22:00N 53°23' W 143°35'0 0.3 1004.9 10.8
2014-Oct-27 21:00N 53°23' W 143°35'2 1.1 1005.4 10.8
2014-Oct-27 19:00N 53°25' W 143°33'0 0.0 1005.9 10.8
2014-Oct-27 18:00N 53°25' W 143°33'2 1.6 1006.0 10.8
2014-Oct-27 17:00N 53°24' W 143°30'3 2.8 1005.9 10.8
2014-Oct-27 16:00N 53°26' W 143°34'0 0.0 1005.8 10.8
2014-Oct-27 15:00N 53°26' W 143°34'0 0.0 1005.9 10.8
2014-Oct-27 14:00N 53°26' W 143°34'4 3.5 1006.0 10.8
2014-Oct-27 13:00N 53°24' W 143°29'0 0.0 1006.4 10.8
2014-Oct-27 12:00N 53°24' W 143°29'0 0.0 1006.8 10.8
2014-Oct-27 11:00N 53°24' W 143°29'0 0.0 1007.2 10.8
2014-Oct-27 10:00N 53°24' W 143°29'0 0.0 1007.8 10.8
2014-Oct-27 07:00N 53°24' W 143°29'0 0.0 1008.9 10.8
2014-Oct-27 06:00N 53°24' W 143°29'0 0.0 1009.0 10.8
2014-Oct-27 05:00N 53°24' W 143°29'1 0.6 1009.3 10.8
2014-Oct-27 04:00N 53°24' W 143°30'1 1.0 1009.6 10.8
2014-Oct-27 03:00N 53°25' W 143°29'0 0.0 1009.7 10.8
2014-Oct-27 02:00N 53°25' W 143°29'0 0.2 1009.9 10.8
2014-Oct-27 01:00N 53°26' W 143°29'1 1.1 1010.4 10.8
2014-Oct-27 00:00N 53°27' W 143°30'2 1.8 1010.6 10.8
2014-Oct-26 23:00N 53°27' W 143°27'4 3.9 1010.9 10.8
2014-Oct-26 22:00N 53°25' W 143°33'1 0.9 1011.3 10.8
2014-Oct-26 21:00N 53°25' W 143°32'0 0.0 1011.9 10.8
2014-Oct-26 20:00N 53°25' W 143°32'1 1.0 1012.0 10.8
2014-Oct-26 19:00N 53°24' W 143°31'0 0.0 1012.3 10.8
2014-Oct-26 17:00N 53°24' W 143°31'1 1.1 1012.2 10.8
2014-Oct-26 16:00N 53°24' W 143°29'1 0.9 1012.1 10.8
2014-Oct-26 15:00N 53°24' W 143°29'1 0.8 1012.2 10.8
2014-Oct-26 14:00N 53°25' W 143°28'0 0.1 1012.3 10.8
2014-Oct-26 13:00N 53°25' W 143°28'1 0.8 1011.9 10.8
2014-Oct-26 12:00N 53°26' W 143°29'1 0.7 1012.2 10.8
2014-Oct-26 11:00N 53°26' W 143°28'0 0.0 1012.5 10.8
2014-Oct-26 10:00N 53°26' W 143°28'3 2.6 1012.4 10.8
2014-Oct-26 09:00N 53°26' W 143°32'1 1.1 1012.4 10.8
2014-Oct-26 08:00N 53°26' W 143°30'0 0.0 1012.3 10.8
2014-Oct-26 07:00N 53°26' W 143°30'0 0.0 1012.3 10.8
2014-Oct-26 06:00N 53°26' W 143°30'1 0.7 1011.9 10.8
2014-Oct-26 05:00N 53°26' W 143°31'0 0.4 1012.0 10.8
2014-Oct-26 04:00N 53°26' W 143°30'0 0.4 1011.8 10.8
2014-Oct-26 03:00N 53°25' W 143°31'0 0.0 1011.5 10.8
2014-Oct-26 02:00N 53°25' W 143°31'1 0.8 1011.4 10.8
2014-Oct-26 01:00N 53°26' W 143°30'0 0.2 1011.1 10.8
2014-Oct-26 00:00N 53°26' W 143°30'1 0.8 1011.1 10.8
2014-Oct-25 23:00N 53°27' W 143°30'1 0.3 1011.0 10.8
2014-Oct-25 21:00N 53°28' W 143°30'0 0.0 1011.3 10.8
2014-Oct-25 20:00N 53°28' W 143°30'1 1.5 1011.1 10.8
2014-Oct-25 19:00N 53°27' W 143°32'0 0.0 1011.1 10.8
2014-Oct-25 18:00N 53°27' W 143°32'0 0.0 1011.1 10.9
2014-Oct-25 17:00N 53°27' W 143°32'1 0.7 1010.9 10.9
2014-Oct-25 16:00N 53°28' W 143°32'0 0.0 1010.8 10.8
2014-Oct-25 15:00N 53°28' W 143°32'1 0.6 1010.9 10.8
2014-Oct-25 14:00N 53°28' W 143°31'1 0.7 1010.8 10.8
2014-Oct-25 13:00N 53°28' W 143°32'0 0.0 1010.9 10.9
2014-Oct-25 12:00N 53°28' W 143°32'1 1.5 1011.2 10.9
2014-Oct-25 11:00N 53°28' W 143°30'0 0.0 1011.3 10.9
2014-Oct-25 08:00N 53°28' W 143°30'1 0.6 1011.8 10.9
2014-Oct-25 06:00N 53°29' W 143°29'1 0.6 1011.8 10.9
2014-Oct-25 05:00N 53°29' W 143°30'1 0.7 1011.7 10.9
2014-Oct-25 04:00N 53°28' W 143°31'0 0.0 1011.7 10.9
2014-Oct-25 03:00N 53°28' W 143°31'1 0.8 1011.6 10.9
2014-Oct-25 02:00N 53°29' W 143°32'3 3.4 1011.4 10.9
2014-Oct-25 01:00N 53°30' W 143°26'2 1.2 1011.3 10.9
2014-Oct-24 23:00N 53°29' W 143°29'0 0.0 1011.1 10.9
2014-Oct-24 21:00N 53°29' W 143°29'1 1.0 1011.2 10.9
2014-Oct-24 20:00N 53°29' W 143°29'0 0.0 1011.1 10.9
2014-Oct-24 19:00N 53°29' W 143°29'0 0.1 1011.0 10.9
2014-Oct-24 18:00N 53°30' W 143°29'0 0.0 1011.0 10.9
2014-Oct-24 17:00N 53°30' W 143°29'0 0.3 1010.7 11.0
2014-Oct-24 16:00N 53°30' W 143°29'2 2.4 1010.2 11.0
2014-Oct-24 15:00N 53°32' W 143°32'0 0.0 1010.1 11.0
2014-Oct-24 14:00N 53°32' W 143°32'1 0.8 1009.8 11.0
2014-Oct-24 13:00N 53°32' W 143°30'0 0.2 1009.2 11.0
2014-Oct-24 12:00N 53°32' W 143°31'2 2.3 1009.1 11.0
2014-Oct-24 11:00N 53°30' W 143°32'2 2.2 1008.8 11.0
2014-Oct-24 10:00N 53°32' W 143°30'2 2.2 1008.6 11.0
2014-Oct-24 09:00N 53°30' W 143°32'2 2.2 1008.2 11.0
2014-Oct-24 08:00N 53°32' W 143°30'0 0.0 1007.8 11.0
2014-Oct-24 07:00N 53°32' W 143°30'0 0.0 1007.2 11.0
2014-Oct-24 06:00N 53°32' W 143°30'0 0.0 1006.5 11.0
2014-Oct-24 05:00N 53°32' W 143°30'3 3.0 1005.9 11.0
2014-Oct-24 04:00N 53°33' W 143°26'0 0.0 1005.2 11.0
2014-Oct-24 03:00N 53°33' W 143°26'0 0.0 1004.2 11.0
2014-Oct-24 02:00N 53°33' W 143°26'2 2.2 1003.2 11.0
2014-Oct-24 01:00N 53°35' W 143°29'0 0.2 1002.1 11.0
2014-Oct-23 23:00N 53°34' W 143°29'0 0.0 1000.4 11.0
2014-Oct-23 22:00N 53°34' W 143°29'2 0.8 999.7 11.0
2014-Oct-23 20:00N 53°33' W 143°27'0 0.0 997.5 11.0
2014-Oct-23 19:00N 53°33' W 143°27'0 0.5 996.8 11.0
2014-Oct-23 18:00N 53°33' W 143°26'0 0.0 995.6 11.0
2014-Oct-23 17:00N 53°33' W 143°26'1 0.6 994.9 11.0
2014-Oct-23 15:00N 53°34' W 143°25'0 0.0 993.9 11.0
2014-Oct-23 14:00N 53°34' W 143°25'1 0.7 993.3 11.0
2014-Oct-23 13:00N 53°34' W 143°24'1 0.6 992.5 11.0
2014-Oct-23 12:00N 53°34' W 143°23'0 0.0 991.8 11.0
2014-Oct-23 11:00N 53°34' W 143°23'2 1.7 991.1 11.0
2014-Oct-23 10:00N 53°36' W 143°25'1 0.3 990.5 11.0
2014-Oct-23 07:00N 53°36' W 143°26'1 1.4 989.0 11.1
2014-Oct-23 06:00N 53°35' W 143°26'0 0.0 988.7 11.1
2014-Oct-23 05:00N 53°35' W 143°26'0 0.0 988.4 11.1
2014-Oct-23 04:00N 53°35' W 143°26'0 0.0 988.0 11.1
2014-Oct-23 03:00N 53°35' W 143°26'0 0.2 987.8 11.1
2014-Oct-23 01:00N 53°34' W 143°26'0 0.0 987.4 11.1
2014-Oct-23 00:00N 53°34' W 143°26'0 0.4 987.3 11.1
2014-Oct-22 23:00N 53°34' W 143°26'0 0.0 987.1 11.1
2014-Oct-22 22:00N 53°34' W 143°26'2 0.9 987.1 11.1
2014-Oct-22 20:00N 53°36' W 143°27'0 0.0 986.7 11.1
2014-Oct-22 19:00N 53°36' W 143°27'0 0.0 986.4 11.1
2014-Oct-22 17:00N 53°36' W 143°27'0 0.0 985.2 11.1
2014-Oct-22 16:00N 53°36' W 143°27'1 1.3 984.7 11.2
2014-Oct-22 15:00N 53°37' W 143°29'1 1.5 984.2 11.2
2014-Oct-22 14:00N 53°36' W 143°27'0 0.4 983.8 11.2
2014-Oct-22 13:00N 53°35' W 143°27'0 0.0 983.6 11.2
2014-Oct-22 11:00N 53°35' W 143°27'0 0.0 982.7 11.2
2014-Oct-22 10:00N 53°35' W 143°27'0 0.0 982.2 11.2
2014-Oct-22 07:00N 53°35' W 143°27'3 3.0 980.7 11.2
2014-Oct-22 06:00N 53°38' W 143°25'0 0.0 980.1 11.2
2014-Oct-22 04:00N 53°38' W 143°25'3 2.6 979.8 11.3
2014-Oct-22 03:00N 53°41' W 143°27'0 0.0 979.4 11.3
2014-Oct-22 02:00N 53°41' W 143°27'2 1.9 978.6 11.3
2014-Oct-22 01:00N 53°43' W 143°27'0 0.0 977.5 11.4
2014-Oct-22 00:00N 53°43' W 143°27'1 0.7 977.6 11.4
2014-Oct-21 22:00N 53°41' W 143°29'0 0.0 975.4 11.5
2014-Oct-21 21:00N 53°41' W 143°29'0 0.0 975.0 11.5
2014-Oct-21 20:00N 53°41' W 143°29'3 3.1 974.9 11.5
2014-Oct-21 19:00N 53°41' W 143°23'0 0.0 974.5 11.5
2014-Oct-21 18:00N 53°41' W 143°23'0 0.0 974.6 11.5
2014-Oct-21 17:00N 53°41' W 143°23'2 0.8 974.4 11.5
2014-Oct-21 15:00N 53°43' W 143°24'2 2.5 975.1 11.5
2014-Oct-21 14:00N 53°43' W 143°28'0 0.0 976.0 11.5
2014-Oct-21 13:00N 53°43' W 143°28'0 0.0 976.4 11.5
2014-Oct-21 12:00N 53°43' W 143°28'   976.4 11.5
Track history (hours):
 
Tides and Currents Weather Stations Pressure Air Temp Water Temp Dewpoint Dewpoint Depression Visibility Wind Speed Wind Dir Waves Ship Positions

Drifting buoy 46762

Last reported at 2014-Oct-31 12:00 UTC. Time now 2014-Oct-31 13:39 UTC.
Position N 53°21' W 143°35'.

Barometer 1001.8 mb
Water temperature 10.8 ° C

Date/timePositionNaut miles runAvg speedWind from/ knotsBaromVisibWave heightAir tempDewpointWater temp
2014-Oct-31 12:00N 53°21' W 143°35'0 0.0 1001.8 10.8
2014-Oct-31 11:00N 53°21' W 143°35'0 0.0 1002.2 10.8
2014-Oct-31 10:00N 53°21' W 143°35'0 0.0 1002.6 10.8
2014-Oct-31 08:00N 53°21' W 143°35'1 1.5 1002.8 10.8
2014-Oct-31 07:00N 53°19' W 143°36'1 0.9 1003.0 10.8
2014-Oct-31 06:00N 53°20' W 143°35'1 0.6 1002.9 10.8
2014-Oct-31 05:00N 53°20' W 143°35'1 0.7 1002.6 10.8
2014-Oct-31 03:00N 53°20' W 143°38'0 0.0 1002.5 10.7
2014-Oct-31 02:00N 53°20' W 143°38'0 0.3 1002.4 10.7
2014-Oct-31 01:00N 53°20' W 143°37'0 0.3 1002.4 10.7
2014-Oct-31 00:00N 53°20' W 143°38'2 1.5 1002.5 10.7
2014-Oct-30 23:00N 53°18' W 143°39'0 0.0 1002.6 10.7
2014-Oct-30 22:00N 53°18' W 143°39'2 1.8 1002.6 10.7
2014-Oct-30 21:00N 53°20' W 143°36'1 1.0 1002.6 10.7
2014-Oct-30 20:00N 53°19' W 143°35'0 0.1 1002.5 10.6
2014-Oct-30 18:00N 53°19' W 143°35'0 0.0 1002.1 10.6
2014-Oct-30 17:00N 53°19' W 143°35'0 0.0 1001.5 10.6
2014-Oct-30 16:00N 53°19' W 143°35'1 0.7 1001.1 10.6
2014-Oct-30 14:00N 53°20' W 143°37'1 0.7 1000.5 10.6
2014-Oct-30 13:00N 53°20' W 143°36'0 0.0 1000.5 10.6
2014-Oct-30 12:00N 53°20' W 143°36'0 0.0 1000.9 10.5
2014-Oct-30 10:00N 53°20' W 143°36'2 0.7 1001.4 10.4
2014-Oct-30 07:00N 53°21' W 143°32'1 0.4 1001.7 10.5
2014-Oct-30 05:00N 53°21' W 143°34'2 1.0 1001.7 10.6
2014-Oct-30 03:00N 53°22' W 143°36'0 0.0 1000.8 10.6
2014-Oct-30 02:00N 53°22' W 143°36'1 0.8 1000.7 10.6
2014-Oct-30 01:00N 53°23' W 143°37'1 0.8 1000.4 10.7
2014-Oct-30 00:00N 53°22' W 143°36'1 1.3 1000.4 10.7
2014-Oct-29 23:00N 53°22' W 143°38'1 0.8 1000.6 10.6
2014-Oct-29 22:00N 53°21' W 143°39'0 0.2 1000.7 10.6
2014-Oct-29 21:00N 53°21' W 143°39'0 0.0 1000.9 10.6
2014-Oct-29 20:00N 53°21' W 143°39'2 2.4 1000.8 10.6
2014-Oct-29 19:00N 53°22' W 143°35'0 0.0 1000.3 10.6
2014-Oct-29 18:00N 53°22' W 143°35'1 1.4 999.7 10.6
2014-Oct-29 17:00N 53°21' W 143°34'0 0.0 999.0 10.6
2014-Oct-29 16:00N 53°21' W 143°34'0 0.0 998.5 10.6
2014-Oct-29 15:00N 53°21' W 143°34'3 2.5 998.2 10.6
2014-Oct-29 14:00N 53°21' W 143°38'0 0.0 998.2 10.6
2014-Oct-29 13:00N 53°21' W 143°38'0 0.0 998.2 10.6
2014-Oct-29 11:00N 53°21' W 143°38'0 0.0 998.2 10.6
2014-Oct-29 07:00N 53°21' W 143°38'0 0.4 998.4 10.6
2014-Oct-29 06:00N 53°21' W 143°37'1 0.9 998.2 10.7
2014-Oct-29 05:00N 53°22' W 143°36'1 1.4 998.2 10.7
2014-Oct-29 04:00N 53°21' W 143°38'1 0.4 997.8 10.7
2014-Oct-29 02:00N 53°21' W 143°37'1 0.8 997.3 10.7
2014-Oct-29 01:00N 53°22' W 143°36'1 1.4 997.2 10.7
2014-Oct-29 00:00N 53°23' W 143°37'0 0.0 997.2 10.8
2014-Oct-28 23:00N 53°23' W 143°37'0 0.3 997.5 10.8
2014-Oct-28 22:00N 53°23' W 143°37'0 0.0 998.2 10.8
2014-Oct-28 21:00N 53°23' W 143°37'1 0.4 998.7 10.8
2014-Oct-28 19:00N 53°23' W 143°39'1 0.6 999.3 10.7
2014-Oct-28 18:00N 53°22' W 143°38'1 0.5 999.6 10.7
2014-Oct-28 16:00N 53°22' W 143°37'0 0.0 999.8 10.8
2014-Oct-28 15:00N 53°22' W 143°37'2 1.5 1000.0 10.7
2014-Oct-28 14:00N 53°23' W 143°39'1 0.5 1000.2 10.7
2014-Oct-28 13:00N 53°23' W 143°38'0 0.0 1000.6 10.7
2014-Oct-28 12:00N 53°23' W 143°38'1 0.5 1001.0 10.8
2014-Oct-28 10:00N 53°23' W 143°37'0 0.0 1002.2 10.8
2014-Oct-28 07:00N 53°23' W 143°37'0 0.0 1003.0 10.8
2014-Oct-28 06:00N 53°23' W 143°37'1 0.4 1003.2 10.8
2014-Oct-28 04:00N 53°23' W 143°38'0 0.0 1003.8 10.8
2014-Oct-28 03:00N 53°23' W 143°38'2 1.9 1003.8 10.8
2014-Oct-28 02:00N 53°24' W 143°35'1 1.4 1003.9 10.8
2014-Oct-28 01:00N 53°25' W 143°37'0 0.4 1004.1 10.8
2014-Oct-28 00:00N 53°25' W 143°37'0 0.0 1004.4 10.8
2014-Oct-27 23:00N 53°25' W 143°37'2 2.0 1004.6 10.8
2014-Oct-27 22:00N 53°23' W 143°35'0 0.3 1004.9 10.8
2014-Oct-27 21:00N 53°23' W 143°35'2 1.1 1005.4 10.8
2014-Oct-27 19:00N 53°25' W 143°33'0 0.0 1005.9 10.8
2014-Oct-27 18:00N 53°25' W 143°33'2 1.6 1006.0 10.8
2014-Oct-27 17:00N 53°24' W 143°30'3 2.8 1005.9 10.8
2014-Oct-27 16:00N 53°26' W 143°34'0 0.0 1005.8 10.8
2014-Oct-27 15:00N 53°26' W 143°34'0 0.0 1005.9 10.8
2014-Oct-27 14:00N 53°26' W 143°34'4 3.5 1006.0 10.8
2014-Oct-27 13:00N 53°24' W 143°29'0 0.0 1006.4 10.8
2014-Oct-27 12:00N 53°24' W 143°29'0 0.0 1006.8 10.8
2014-Oct-27 11:00N 53°24' W 143°29'0 0.0 1007.2 10.8
2014-Oct-27 10:00N 53°24' W 143°29'0 0.0 1007.8 10.8
2014-Oct-27 07:00N 53°24' W 143°29'0 0.0 1008.9 10.8
2014-Oct-27 06:00N 53°24' W 143°29'0 0.0 1009.0 10.8
2014-Oct-27 05:00N 53°24' W 143°29'1 0.6 1009.3 10.8
2014-Oct-27 04:00N 53°24' W 143°30'1 1.0 1009.6 10.8
2014-Oct-27 03:00N 53°25' W 143°29'0 0.0 1009.7 10.8
2014-Oct-27 02:00N 53°25' W 143°29'0 0.2 1009.9 10.8
2014-Oct-27 01:00N 53°26' W 143°29'1 1.1 1010.4 10.8
2014-Oct-27 00:00N 53°27' W 143°30'2 1.8 1010.6 10.8
2014-Oct-26 23:00N 53°27' W 143°27'4 3.9 1010.9 10.8
2014-Oct-26 22:00N 53°25' W 143°33'1 0.9 1011.3 10.8
2014-Oct-26 21:00N 53°25' W 143°32'0 0.0 1011.9 10.8
2014-Oct-26 20:00N 53°25' W 143°32'1 1.0 1012.0 10.8
2014-Oct-26 19:00N 53°24' W 143°31'0 0.0 1012.3 10.8
2014-Oct-26 17:00N 53°24' W 143°31'1 1.1 1012.2 10.8
2014-Oct-26 16:00N 53°24' W 143°29'1 0.9 1012.1 10.8
2014-Oct-26 15:00N 53°24' W 143°29'1 0.8 1012.2 10.8
2014-Oct-26 14:00N 53°25' W 143°28'0 0.1 1012.3 10.8
2014-Oct-26 13:00N 53°25' W 143°28'1 0.8 1011.9 10.8
2014-Oct-26 12:00N 53°26' W 143°29'1 0.7 1012.2 10.8
2014-Oct-26 11:00N 53°26' W 143°28'0 0.0 1012.5 10.8
2014-Oct-26 10:00N 53°26' W 143°28'3 2.6 1012.4 10.8
2014-Oct-26 09:00N 53°26' W 143°32'1 1.1 1012.4 10.8
2014-Oct-26 08:00N 53°26' W 143°30'0 0.0 1012.3 10.8
2014-Oct-26 07:00N 53°26' W 143°30'0 0.0 1012.3 10.8
2014-Oct-26 06:00N 53°26' W 143°30'1 0.7 1011.9 10.8
2014-Oct-26 05:00N 53°26' W 143°31'0 0.4 1012.0 10.8
2014-Oct-26 04:00N 53°26' W 143°30'0 0.4 1011.8 10.8
2014-Oct-26 03:00N 53°25' W 143°31'0 0.0 1011.5 10.8
2014-Oct-26 02:00N 53°25' W 143°31'1 0.8 1011.4 10.8
2014-Oct-26 01:00N 53°26' W 143°30'0 0.2 1011.1 10.8
2014-Oct-26 00:00N 53°26' W 143°30'1 0.8 1011.1 10.8
2014-Oct-25 23:00N 53°27' W 143°30'1 0.3 1011.0 10.8
2014-Oct-25 21:00N 53°28' W 143°30'0 0.0 1011.3 10.8
2014-Oct-25 20:00N 53°28' W 143°30'1 1.5 1011.1 10.8
2014-Oct-25 19:00N 53°27' W 143°32'0 0.0 1011.1 10.8
2014-Oct-25 18:00N 53°27' W 143°32'0 0.0 1011.1 10.9
2014-Oct-25 17:00N 53°27' W 143°32'1 0.7 1010.9 10.9
2014-Oct-25 16:00N 53°28' W 143°32'0 0.0 1010.8 10.8
2014-Oct-25 15:00N 53°28' W 143°32'1 0.6 1010.9 10.8
2014-Oct-25 14:00N 53°28' W 143°31'1 0.7 1010.8 10.8
2014-Oct-25 13:00N 53°28' W 143°32'0 0.0 1010.9 10.9
2014-Oct-25 12:00N 53°28' W 143°32'1 1.5 1011.2 10.9
2014-Oct-25 11:00N 53°28' W 143°30'0 0.0 1011.3 10.9
2014-Oct-25 08:00N 53°28' W 143°30'1 0.6 1011.8 10.9
2014-Oct-25 06:00N 53°29' W 143°29'1 0.6 1011.8 10.9
2014-Oct-25 05:00N 53°29' W 143°30'1 0.7 1011.7 10.9
2014-Oct-25 04:00N 53°28' W 143°31'0 0.0 1011.7 10.9
2014-Oct-25 03:00N 53°28' W 143°31'1 0.8 1011.6 10.9
2014-Oct-25 02:00N 53°29' W 143°32'3 3.4 1011.4 10.9
2014-Oct-25 01:00N 53°30' W 143°26'2 1.2 1011.3 10.9
2014-Oct-24 23:00N 53°29' W 143°29'0 0.0 1011.1 10.9
2014-Oct-24 21:00N 53°29' W 143°29'1 1.0 1011.2 10.9
2014-Oct-24 20:00N 53°29' W 143°29'0 0.0 1011.1 10.9
2014-Oct-24 19:00N 53°29' W 143°29'0 0.1 1011.0 10.9
2014-Oct-24 18:00N 53°30' W 143°29'0 0.0 1011.0 10.9
2014-Oct-24 17:00N 53°30' W 143°29'0 0.3 1010.7 11.0
2014-Oct-24 16:00N 53°30' W 143°29'2 2.4 1010.2 11.0
2014-Oct-24 15:00N 53°32' W 143°32'0 0.0 1010.1 11.0
2014-Oct-24 14:00N 53°32' W 143°32'1 0.8 1009.8 11.0
2014-Oct-24 13:00N 53°32' W 143°30'0 0.2 1009.2 11.0
2014-Oct-24 12:00N 53°32' W 143°31'2 2.3 1009.1 11.0
2014-Oct-24 11:00N 53°30' W 143°32'2 2.2 1008.8 11.0
2014-Oct-24 10:00N 53°32' W 143°30'2 2.2 1008.6 11.0
2014-Oct-24 09:00N 53°30' W 143°32'2 2.2 1008.2 11.0
2014-Oct-24 08:00N 53°32' W 143°30'0 0.0 1007.8 11.0
2014-Oct-24 07:00N 53°32' W 143°30'0 0.0 1007.2 11.0
2014-Oct-24 06:00N 53°32' W 143°30'0 0.0 1006.5 11.0
2014-Oct-24 05:00N 53°32' W 143°30'3 3.0 1005.9 11.0
2014-Oct-24 04:00N 53°33' W 143°26'0 0.0 1005.2 11.0
2014-Oct-24 03:00N 53°33' W 143°26'0 0.0 1004.2 11.0
2014-Oct-24 02:00N 53°33' W 143°26'2 2.2 1003.2 11.0
2014-Oct-24 01:00N 53°35' W 143°29'0 0.2 1002.1 11.0
2014-Oct-23 23:00N 53°34' W 143°29'0 0.0 1000.4 11.0
2014-Oct-23 22:00N 53°34' W 143°29'2 0.8 999.7 11.0
2014-Oct-23 20:00N 53°33' W 143°27'0 0.0 997.5 11.0
2014-Oct-23 19:00N 53°33' W 143°27'0 0.5 996.8 11.0
2014-Oct-23 18:00N 53°33' W 143°26'0 0.0 995.6 11.0
2014-Oct-23 17:00N 53°33' W 143°26'1 0.6 994.9 11.0
2014-Oct-23 15:00N 53°34' W 143°25'0 0.0 993.9 11.0
2014-Oct-23 14:00N 53°34' W 143°25'1 0.7 993.3 11.0
2014-Oct-23 13:00N 53°34' W 143°24'1 0.6 992.5 11.0
2014-Oct-23 12:00N 53°34' W 143°23'0 0.0 991.8 11.0
2014-Oct-23 11:00N 53°34' W 143°23'2 1.7 991.1 11.0
2014-Oct-23 10:00N 53°36' W 143°25'1 0.3 990.5 11.0
2014-Oct-23 07:00N 53°36' W 143°26'1 1.4 989.0 11.1
2014-Oct-23 06:00N 53°35' W 143°26'0 0.0 988.7 11.1
2014-Oct-23 05:00N 53°35' W 143°26'0 0.0 988.4 11.1
2014-Oct-23 04:00N 53°35' W 143°26'0 0.0 988.0 11.1
2014-Oct-23 03:00N 53°35' W 143°26'0 0.2 987.8 11.1
2014-Oct-23 01:00N 53°34' W 143°26'0 0.0 987.4 11.1
2014-Oct-23 00:00N 53°34' W 143°26'0 0.4 987.3 11.1
2014-Oct-22 23:00N 53°34' W 143°26'0 0.0 987.1 11.1
2014-Oct-22 22:00N 53°34' W 143°26'2 0.9 987.1 11.1
2014-Oct-22 20:00N 53°36' W 143°27'0 0.0 986.7 11.1
2014-Oct-22 19:00N 53°36' W 143°27'0 0.0 986.4 11.1
2014-Oct-22 17:00N 53°36' W 143°27'0 0.0 985.2 11.1
2014-Oct-22 16:00N 53°36' W 143°27'1 1.3 984.7 11.2
2014-Oct-22 15:00N 53°37' W 143°29'1 1.5 984.2 11.2
2014-Oct-22 14:00N 53°36' W 143°27'0 0.4 983.8 11.2
2014-Oct-22 13:00N 53°35' W 143°27'0 0.0 983.6 11.2
2014-Oct-22 11:00N 53°35' W 143°27'0 0.0 982.7 11.2
2014-Oct-22 10:00N 53°35' W 143°27'0 0.0 982.2 11.2
2014-Oct-22 07:00N 53°35' W 143°27'3 3.0 980.7 11.2
2014-Oct-22 06:00N 53°38' W 143°25'0 0.0 980.1 11.2
2014-Oct-22 04:00N 53°38' W 143°25'3 2.6 979.8 11.3
2014-Oct-22 03:00N 53°41' W 143°27'0 0.0 979.4 11.3
2014-Oct-22 02:00N 53°41' W 143°27'2 1.9 978.6 11.3
2014-Oct-22 01:00N 53°43' W 143°27'0 0.0 977.5 11.4
2014-Oct-22 00:00N 53°43' W 143°27'1 0.7 977.6 11.4
2014-Oct-21 22:00N 53°41' W 143°29'0 0.0 975.4 11.5
2014-Oct-21 21:00N 53°41' W 143°29'0 0.0 975.0 11.5
2014-Oct-21 20:00N 53°41' W 143°29'3 3.1 974.9 11.5
2014-Oct-21 19:00N 53°41' W 143°23'0 0.0 974.5 11.5
2014-Oct-21 18:00N 53°41' W 143°23'0 0.0 974.6 11.5
2014-Oct-21 17:00N 53°41' W 143°23'2 0.8 974.4 11.5
2014-Oct-21 15:00N 53°43' W 143°24'2 2.5 975.1 11.5
2014-Oct-21 14:00N 53°43' W 143°28'0 0.0 976.0 11.5
2014-Oct-21 13:00N 53°43' W 143°28'0 0.0 976.4 11.5
2014-Oct-21 12:00N 53°43' W 143°28'   976.4 11.5

Dump ship's entire track history